Time;durP1;ratioP1;P1;durP2;ratioP2;P2;SDS_P1;SDS_P2;PMS_P1;PMS_P2;Temp;Humidity;BMP_temperature;BMP_pressure;BME280_temperature;BME280_humidity;BME280_pressure;Samples;Min_cycle;Max_cycle;Signal;HPM_P1;HPM_P2
2022/02/25 00:02:15;;;;;;;;;1.75;1.00;;;;;19.93;32.72;101811.44;5077395;27;45690;-54
2022/02/25 00:04:41;;;;;;;;;2.50;1.00;;;;;19.93;32.98;101827.22;5075820;28;47416;-52
2022/02/25 00:07:06;;;;;;;;;1.00;1.00;;;;;19.93;33.19;101819.31;5077012;27;45371;-52
2022/02/25 00:09:31;;;;;;;;;2.00;0.75;;;;;19.91;33.06;101818.53;5077169;27;45224;-52
2022/02/25 00:11:57;;;;;;;;;3.00;2.00;;;;;19.91;32.88;101825.53;5077125;27;45456;-53
2022/02/25 00:14:22;;;;;;;;;1.00;1.00;;;;;19.91;33.25;101834.31;5076713;27;45493;-52
2022/02/25 00:16:49;;;;;;;;;1.25;1.00;;;;;19.90;32.66;101829.09;5077003;27;45278;-51
2022/02/25 00:19:14;;;;;;;;;0.25;0.25;;;;;19.89;32.46;101835.28;5076083;27;45396;-53
2022/02/25 00:21:40;;;;;;;;;0.50;0.50;;;;;19.91;32.85;101838.69;5077459;27;45333;-54
2022/02/25 00:24:05;;;;;;;;;1.00;1.00;;;;;19.87;33.16;101829.22;5076649;27;46147;-52
2022/02/25 00:26:31;;;;;;;;;2.00;0.75;;;;;19.86;33.01;101840.66;5076670;27;45410;-53
2022/02/25 00:28:56;;;;;;;;;2.00;2.00;;;;;19.86;32.63;101841.50;5076829;27;45371;-54
2022/02/25 00:31:22;;;;;;;;;2.75;1.25;;;;;19.85;32.65;101841.53;5092748;27;45587;-53
2022/02/25 00:33:47;;;;;;;;;1.00;1.00;;;;;19.85;32.53;101844.16;5076468;27;46083;-51
2022/02/25 00:36:12;;;;;;;;;2.00;1.75;;;;;19.82;32.91;101849.53;5077041;27;45348;-53
2022/02/25 00:38:37;;;;;;;;;2.25;1.00;;;;;19.81;32.85;101851.31;5076939;27;45309;-54
2022/02/25 00:41:03;;;;;;;;;4.00;1.00;;;;;19.81;32.45;101853.06;5077227;27;45993;-54
2022/02/25 00:43:28;;;;;;;;;3.00;1.00;;;;;19.81;32.62;101859.19;5076441;28;46270;-54
2022/02/25 00:45:54;;;;;;;;;3.00;0.25;;;;;19.81;32.54;101863.59;5076573;27;45159;-51
2022/02/25 00:48:19;;;;;;;;;1.00;1.00;;;;;19.79;32.52;101861.03;5076691;28;45356;-53
2022/02/25 00:50:45;;;;;;;;;4.75;1.00;;;;;19.75;32.94;101860.28;5076945;27;45530;-54
2022/02/25 00:53:11;;;;;;;;;1.25;1.25;;;;;19.76;33.04;101866.38;5076774;27;45345;-56
2022/02/25 00:55:36;;;;;;;;;1.00;0.00;;;;;19.74;32.98;101866.44;5076458;27;45481;-55
2022/02/25 00:58:02;;;;;;;;;2.00;0.75;;;;;19.74;32.81;101874.34;5076457;27;45350;-53
2022/02/25 01:00:27;;;;;;;;;1.75;1.00;;;;;19.74;32.99;101870.84;5076666;27;45291;-53
2022/02/25 01:02:53;;;;;;;;;1.25;1.00;;;;;19.72;32.89;101883.22;5076170;27;45709;-53
2022/02/25 01:05:18;;;;;;;;;1.50;0.50;;;;;19.72;32.57;101894.56;5076276;27;45381;-54
2022/02/25 01:07:46;;;;;;;;;0.00;0.00;;;;;19.69;33.07;101876.25;5076778;27;45296;-52
2022/02/25 01:10:14;;;;;;;;;1.50;1.25;;;;;19.70;33.12;101888.50;5076918;27;45508;-53
2022/02/25 01:12:40;;;;;;;;;1.75;1.75;;;;;19.68;32.81;101887.69;5075901;27;45495;-53
2022/02/25 01:15:06;;;;;;;;;0.25;0.25;;;;;19.66;33.25;101888.66;5076024;27;45227;-53
2022/02/25 01:17:33;;;;;;;;;1.00;1.00;;;;;19.66;33.30;101896.56;5076024;27;45377;-54
2022/02/25 01:19:59;;;;;;;;;1.00;1.00;;;;;19.63;32.83;101900.16;5076338;27;45584;-50
2022/02/25 01:22:25;;;;;;;;;0.50;0.50;;;;;19.61;32.99;101900.22;5075993;27;45585;-52
2022/02/25 01:24:51;;;;;;;;;2.00;0.75;;;;;19.59;32.87;101902.03;5076058;27;45319;-51
2022/02/25 01:27:17;;;;;;;;;1.75;0.50;;;;;19.58;32.77;101902.06;5076085;28;45360;-49
2022/02/25 01:29:42;;;;;;;;;1.00;1.00;;;;;19.56;33.11;101896.03;5076513;28;45454;-52
2022/02/25 01:32:08;;;;;;;;;0.25;0.25;;;;;19.54;33.14;101893.44;5079242;27;45997;-53
2022/02/25 01:34:34;;;;;;;;;2.00;1.00;;;;;19.54;33.00;101903.13;5079434;27;45263;-51
2022/02/25 01:36:59;;;;;;;;;0.75;0.75;;;;;19.53;33.08;101906.66;5079606;27;45458;-55
2022/02/25 01:39:25;;;;;;;;;1.00;1.00;;;;;19.51;32.82;101903.22;5079532;27;45349;-54
2022/02/25 01:41:50;;;;;;;;;3.50;2.00;;;;;19.51;33.05;101908.47;5079142;27;45301;-52
2022/02/25 01:44:15;;;;;;;;;1.00;1.00;;;;;19.50;32.81;101914.63;5079619;27;45203;-50
2022/02/25 01:46:54;;;;;;;;;2.67;1.00;;;;;19.49;32.90;101923.44;5079325;27;45212;-55
2022/02/25 01:49:21;;;;;;;;;1.00;1.00;;;;;19.48;33.04;101919.97;5077873;27;45566;-56
2022/02/25 01:51:48;;;;;;;;;3.00;1.00;;;;;19.46;33.00;101909.47;5079440;27;46471;-50
2022/02/25 01:54:14;;;;;;;;;0.75;0.75;;;;;19.45;32.92;101910.41;5079451;27;45472;-53
2022/02/25 01:56:42;;;;;;;;;2.00;1.25;;;;;19.43;33.06;101906.97;5079318;27;45233;-55
2022/02/25 01:59:08;;;;;;;;;1.00;1.00;;;;;19.43;33.29;101906.97;5077994;28;45314;-54
2022/02/25 02:01:35;;;;;;;;;1.00;0.00;;;;;19.40;33.22;101906.22;5078869;27;46055;-50
2022/02/25 02:04:01;;;;;;;;;2.25;1.00;;;;;19.41;33.24;101903.53;5079000;27;45485;-54
2022/02/25 02:06:28;;;;;;;;;1.00;1.00;;;;;19.38;33.07;101902.78;5079043;28;45315;-51
2022/02/25 02:08:54;;;;;;;;;1.25;0.75;;;;;19.38;33.16;101908.88;5079154;27;45511;-51
2022/02/25 02:11:29;;;;;;;;;0.50;0.50;;;;;19.39;32.76;101909.75;5078867;28;45644;-53
2022/02/25 02:13:56;;;;;;;;;1.00;1.00;;;;;19.35;32.86;101913.38;5078683;27;45904;-50
2022/02/25 02:16:22;;;;;;;;;2.00;1.00;;;;;19.33;33.17;101902.06;5094604;27;45248;-52
2022/02/25 02:18:47;;;;;;;;;0.25;0.00;;;;;19.33;33.09;101900.31;5079283;27;45230;-55
2022/02/25 02:21:13;;;;;;;;;1.00;1.00;;;;;19.31;32.91;101892.44;5078722;27;46597;-56
2022/02/25 02:23:38;;;;;;;;;0.75;0.75;;;;;19.30;32.70;101903.88;5078815;27;45520;-57
2022/02/25 02:26:03;;;;;;;;;2.00;1.25;;;;;19.31;33.06;101899.50;5078653;27;45398;-53
2022/02/25 02:28:29;;;;;;;;;1.00;1.00;;;;;19.29;32.89;101894.25;5077483;27;45518;-56
2022/02/25 02:30:54;;;;;;;;;1.00;1.00;;;;;19.28;33.03;101896.94;5078401;27;46255;-53
2022/02/25 02:33:21;;;;;;;;;2.00;1.00;;;;;19.27;32.66;101890.84;5078482;27;45407;-51
2022/02/25 02:35:47;;;;;;;;;1.75;1.00;;;;;19.26;32.87;101904.03;5078993;27;45334;-51
2022/02/25 02:38:12;;;;;;;;;1.75;1.00;;;;;19.22;33.07;101891.91;5078605;27;45434;-54
2022/02/25 02:40:38;;;;;;;;;2.00;0.00;;;;;19.20;32.73;101891.94;5078221;27;45445;-52
2022/02/25 02:43:06;;;;;;;;;0.00;0.00;;;;;19.21;32.82;101906.81;5077736;27;45235;-53
2022/02/25 02:45:31;;;;;;;;;1.75;0.25;;;;;19.20;32.84;101902.44;5078421;27;45298;-54
2022/02/25 02:47:56;;;;;;;;;1.50;0.50;;;;;19.18;33.13;101903.41;5078665;27;45251;-50
2022/02/25 02:50:22;;;;;;;;;1.00;1.00;;;;;19.16;32.87;101901.69;5078164;27;46520;-49
2022/02/25 02:52:47;;;;;;;;;1.00;1.00;;;;;19.18;33.21;101901.66;5077292;27;45844;-51
2022/02/25 02:55:13;;;;;;;;;1.00;1.00;;;;;19.16;32.77;101904.31;5078385;27;45239;-53
2022/02/25 02:57:39;;;;;;;;;0.00;0.00;;;;;19.18;33.10;101900.78;5078287;27;45615;-53
2022/02/25 03:00:05;;;;;;;;;1.00;0.00;;;;;19.15;32.88;101897.34;5078058;27;47395;-54
2022/02/25 03:02:31;;;;;;;;;1.00;1.00;;;;;19.13;32.79;101904.41;5078220;27;45338;-52
2022/02/25 03:04:56;;;;;;;;;1.25;1.25;;;;;19.15;32.74;101894.72;5078278;27;45498;-52
2022/02/25 03:07:23;;;;;;;;;0.00;0.00;;;;;19.14;32.99;101903.50;5078293;27;45583;-54
2022/02/25 03:09:49;;;;;;;;;4.00;1.50;;;;;19.14;32.84;101897.41;5078179;27;47095;-54
2022/02/25 03:12:16;;;;;;;;;0.25;0.25;;;;;19.11;32.83;101895.75;5077928;27;45314;-52
2022/02/25 03:14:42;;;;;;;;;4.25;0.00;;;;;19.12;32.86;101907.97;5077948;28;45307;-54
2022/02/25 03:17:07;;;;;;;;;1.50;0.00;;;;;19.11;33.03;101906.25;5078154;27;45548;-53
2022/02/25 03:19:35;;;;;;;;;0.50;0.50;;;;;19.09;33.01;101915.97;5076481;28;46066;-53
2022/02/25 03:22:01;;;;;;;;;0.00;0.00;;;;;19.09;33.05;101908.06;5077693;27;45778;-54
2022/02/25 03:24:26;;;;;;;;;0.25;0.25;;;;;19.08;33.01;101916.88;5077826;27;45413;-54
2022/02/25 03:26:52;;;;;;;;;0.00;0.00;;;;;19.07;33.09;101914.28;5077957;27;45432;-54
2022/02/25 03:29:17;;;;;;;;;0.75;0.75;;;;;19.08;32.76;101913.34;5077868;27;46228;-54
2022/02/25 03:31:42;;;;;;;;;0.75;0.75;;;;;19.07;32.93;101914.28;5077631;27;45333;-53
2022/02/25 03:34:08;;;;;;;;;1.75;1.00;;;;;19.05;33.07;101919.56;5077856;27;45292;-54
2022/02/25 03:36:33;;;;;;;;;0.50;0.25;;;;;19.05;33.24;101913.47;5077788;27;45664;-53
2022/02/25 03:38:58;;;;;;;;;0.00;0.00;;;;;19.03;33.10;101918.75;5077286;27;45634;-50
2022/02/25 03:41:24;;;;;;;;;0.75;0.75;;;;;19.03;33.05;101921.38;5077388;27;45341;-49
2022/02/25 03:43:49;;;;;;;;;1.75;0.00;;;;;19.02;33.16;101917.03;5077893;27;45693;-55
2022/02/25 03:46:15;;;;;;;;;4.25;0.25;;;;;19.01;32.83;101925.84;5076512;28;45523;-52
2022/02/25 03:48:40;;;;;;;;;1.00;1.00;;;;;19.01;32.88;101915.34;5077268;27;46522;-51
2022/02/25 03:51:05;;;;;;;;;1.00;0.50;;;;;19.00;33.12;101918.88;5077314;27;45353;-53
2022/02/25 03:53:31;;;;;;;;;1.00;0.00;;;;;18.98;33.29;101925.94;5076732;27;45434;-52
2022/02/25 03:55:56;;;;;;;;;1.75;1.00;;;;;18.97;33.03;101922.44;5077269;27;45659;-53
2022/02/25 03:58:21;;;;;;;;;0.00;0.00;;;;;18.99;32.98;101925.03;5077444;27;46228;-51
2022/02/25 04:00:47;;;;;;;;;0.50;0.00;;;;;18.98;33.19;101923.31;5077179;27;45333;-53
2022/02/25 04:03:12;;;;;;;;;0.50;0.00;;;;;18.95;33.15;101934.78;5077357;27;45342;-54
2022/02/25 04:05:38;;;;;;;;;1.00;1.00;;;;;18.95;32.93;101936.53;5077453;27;45211;-54
2022/02/25 04:08:03;;;;;;;;;0.50;0.50;;;;;18.95;33.10;101945.31;5077190;27;46115;-52
2022/02/25 04:10:29;;;;;;;;;1.75;0.50;;;;;18.95;33.01;101944.41;5076863;27;45341;-54
2022/02/25 04:12:54;;;;;;;;;1.00;0.00;;;;;18.97;33.39;101938.22;5077166;27;45421;-53
2022/02/25 04:15:20;;;;;;;;;2.00;0.00;;;;;19.02;33.38;101943.31;5077461;27;45605;-52
2022/02/25 04:17:45;;;;;;;;;0.75;0.75;;;;;19.07;33.00;101945.81;5075474;28;47045;-50
2022/02/25 04:20:11;;;;;;;;;0.00;0.00;;;;;19.10;33.06;101946.59;5076942;27;45374;-53
2022/02/25 04:22:36;;;;;;;;;2.00;0.00;;;;;19.19;33.14;101955.06;5076911;27;45326;-52
2022/02/25 04:25:02;;;;;;;;;0.00;0.00;;;;;19.25;33.20;101955.75;5077161;27;45599;-54
2022/02/25 04:27:27;;;;;;;;;3.50;2.00;;;;;19.32;32.92;101951.16;5076649;27;46587;-54
2022/02/25 04:29:53;;;;;;;;;0.50;0.25;;;;;19.38;33.27;101950.94;5077074;27;45344;-51
2022/02/25 04:32:18;;;;;;;;;0.00;0.00;;;;;19.46;33.18;101964.69;5077063;27;45248;-53
2022/02/25 04:34:43;;;;;;;;;2.00;0.00;;;;;19.52;33.00;101960.16;5076954;27;45202;-51
2022/02/25 04:37:09;;;;;;;;;0.00;0.00;;;;;19.59;32.74;101961.66;5076578;27;45207;-55
2022/02/25 04:39:34;;;;;;;;;0.25;0.00;;;;;19.64;33.08;101962.38;5076393;27;45577;-53
2022/02/25 04:41:59;;;;;;;;;0.00;0.00;;;;;19.71;32.89;101973.56;5076594;28;45293;-52
2022/02/25 04:44:25;;;;;;;;;1.00;1.00;;;;;19.74;33.17;101983.94;5077178;27;45406;-52
2022/02/25 04:46:50;;;;;;;;;1.00;0.00;;;;;19.76;33.18;101983.00;5076541;27;47217;-52
2022/02/25 04:49:16;;;;;;;;;0.25;0.25;;;;;19.80;32.49;101975.88;5076480;27;45349;-51
2022/02/25 04:51:42;;;;;;;;;0.00;0.00;;;;;19.85;32.89;101983.59;5076762;27;45343;-53
2022/02/25 04:54:08;;;;;;;;;0.00;0.00;;;;;19.89;32.86;101980.00;5076792;27;45559;-53
2022/02/25 04:56:33;;;;;;;;;1.25;1.00;;;;;19.93;32.62;101979.84;5092071;27;46344;-55
2022/02/25 04:58:59;;;;;;;;;0.25;0.00;;;;;19.95;32.75;101982.41;5076331;27;45425;-55
2022/02/25 05:01:24;;;;;;;;;0.25;0.25;;;;;19.98;32.91;101978.78;5092567;27;45676;-54
2022/02/25 05:03:50;;;;;;;;;0.00;0.00;;;;;19.98;32.75;101978.78;5076656;27;45644;-52
2022/02/25 05:06:15;;;;;;;;;1.50;0.00;;;;;20.00;32.33;101985.75;5078319;27;46096;-55
2022/02/25 05:08:41;;;;;;;;;0.75;0.00;;;;;20.02;32.33;101994.41;5079791;27;45433;-54
2022/02/25 05:11:06;;;;;;;;;0.00;0.00;;;;;20.02;32.68;101993.56;5080086;27;45306;-52
2022/02/25 05:13:32;;;;;;;;;0.00;0.00;;;;;20.03;32.66;101990.03;5080275;27;45446;-55
2022/02/25 05:21:25;;;;;;;;;0.00;0.00;;;;;20.02;32.74;101990.94;5080178;27;45436;-54
2022/02/25 05:23:51;;;;;;;;;0.75;0.75;;;;;20.04;32.12;101999.66;5079920;27;45321;-54
2022/02/25 05:26:17;;;;;;;;;0.25;0.25;;;;;20.01;32.22;101997.97;5078219;28;47803;-51
2022/02/25 05:28:42;;;;;;;;;2.25;0.25;;;;;20.01;32.60;102008.47;5079520;27;45350;-53
2022/02/25 05:31:08;;;;;;;;;0.00;0.00;;;;;20.01;32.43;102005.00;5080066;27;45334;-53
2022/02/25 05:33:34;;;;;;;;;0.00;0.00;;;;;20.01;32.22;102010.28;5079530;27;45513;-55
2022/02/25 05:36:00;;;;;;;;;0.50;0.00;;;;;20.00;32.03;102012.06;5079220;27;46055;-56
2022/02/25 05:38:25;;;;;;;;;1.00;0.00;;;;;20.00;32.20;102001.53;5079750;27;45445;-55
2022/02/25 05:40:51;;;;;;;;;1.00;0.75;;;;;20.00;32.31;102011.19;5079459;27;45242;-55
2022/02/25 05:43:17;;;;;;;;;1.00;0.00;;;;;19.99;32.14;102010.34;5079651;27;45160;-55
2022/02/25 05:45:42;;;;;;;;;0.25;0.25;;;;;19.99;32.13;102012.97;5078099;28;45349;-55
2022/02/25 05:48:08;;;;;;;;;1.50;0.00;;;;;19.99;32.42;102007.69;5079212;27;45232;-54
2022/02/25 05:50:33;;;;;;;;;0.00;0.00;;;;;19.98;32.50;102026.16;5079536;28;45531;-54
2022/02/25 05:52:59;;;;;;;;;0.00;0.00;;;;;19.94;32.25;102022.78;5079771;27;45997;-50
2022/02/25 05:55:25;;;;;;;;;1.50;0.50;;;;;19.95;32.43;102029.75;5079330;28;46428;-53
2022/02/25 05:57:52;;;;;;;;;0.00;0.00;;;;;19.94;32.12;102033.31;5079052;27;45528;-55
2022/02/25 06:00:19;;;;;;;;;1.00;1.00;;;;;19.91;32.24;102033.41;5079197;27;45281;-52
2022/02/25 06:02:47;;;;;;;;;1.00;0.00;;;;;19.90;32.16;102037.81;5079287;27;45202;-54
2022/02/25 06:05:13;;;;;;;;;0.00;0.00;;;;;19.90;32.58;102042.19;5078895;27;46135;-52
2022/02/25 06:07:40;;;;;;;;;0.25;0.00;;;;;19.89;32.14;102040.50;5078899;27;46345;-53
2022/02/25 06:10:07;;;;;;;;;0.00;0.00;;;;;19.87;32.26;102050.22;5077899;28;45452;-53
2022/02/25 06:12:32;;;;;;;;;0.00;0.00;;;;;19.85;32.23;102047.59;5079099;27;45529;-53
2022/02/25 06:14:57;;;;;;;;;0.25;0.00;;;;;19.85;32.09;102057.25;5079035;27;45400;-53
2022/02/25 06:17:23;;;;;;;;;1.00;1.00;;;;;19.85;32.22;102054.63;5077708;28;45642;-53
2022/02/25 06:19:48;;;;;;;;;0.00;0.00;;;;;19.82;32.63;102046.84;5078831;27;45316;-54
2022/02/25 06:22:14;;;;;;;;;0.00;0.00;;;;;19.82;32.38;102060.84;5079179;27;45176;-55
2022/02/25 06:24:40;;;;;;;;;0.50;0.00;;;;;19.81;32.32;102053.00;5078875;27;45627;-53
2022/02/25 06:27:05;;;;;;;;;3.50;1.00;;;;;19.81;32.71;102058.25;5078632;27;45170;-53
2022/02/25 06:29:30;;;;;;;;;1.50;0.00;;;;;19.80;32.70;102064.44;5078866;27;45378;-46
2022/02/25 06:31:56;;;;;;;;;0.00;0.00;;;;;19.78;32.51;102069.75;5079172;27;45357;-51
2022/02/25 06:34:21;;;;;;;;;1.00;1.00;;;;;19.77;32.84;102078.56;5078406;27;52545;-53
2022/02/25 06:36:46;;;;;;;;;3.75;1.00;;;;;19.73;32.42;102080.44;5078521;27;45321;-51
2022/02/25 06:39:13;;;;;;;;;0.00;0.00;;;;;19.73;32.61;102074.31;5078557;27;45242;-53
2022/02/25 06:41:39;;;;;;;;;0.25;0.25;;;;;19.70;32.49;102088.41;5078759;27;45310;-54
2022/02/25 06:44:04;;;;;;;;;2.00;0.00;;;;;19.69;32.49;102085.84;5078327;27;45552;-53
2022/02/25 06:46:30;;;;;;;;;0.25;0.00;;;;;19.67;32.68;102082.38;5078571;28;45322;-54
2022/02/25 06:48:55;;;;;;;;;2.00;0.75;;;;;19.64;32.55;102078.09;5078466;27;45309;-54
2022/02/25 06:51:21;;;;;;;;;0.00;0.00;;;;;19.63;32.81;102086.88;5077341;27;45986;-52
2022/02/25 06:53:46;;;;;;;;;0.00;0.00;;;;;19.60;32.67;102073.81;5078123;27;46428;-54
2022/02/25 06:56:12;;;;;;;;;1.50;0.25;;;;;19.61;32.90;102089.59;5076993;27;45513;-55
2022/02/25 06:58:37;;;;;;;;;1.25;1.25;;;;;19.59;32.54;102085.25;5078237;27;45467;-54
2022/02/25 07:01:05;;;;;;;;;0.75;0.75;;;;;19.59;32.90;102093.16;5078418;27;45459;-56
2022/02/25 07:03:30;;;;;;;;;1.00;1.00;;;;;19.58;32.87;102084.41;5077050;27;46119;-54
2022/02/25 07:05:56;;;;;;;;;0.00;0.00;;;;;19.55;32.80;102095.00;5078114;27;45238;-53
2022/02/25 07:08:21;;;;;;;;;0.25;0.25;;;;;19.55;32.85;102097.66;5078301;27;45240;-55
2022/02/25 07:10:47;;;;;;;;;0.75;0.75;;;;;19.53;32.62;102102.09;5078359;27;45536;-55
2022/02/25 07:13:13;;;;;;;;;0.00;0.00;;;;;19.52;32.81;102100.34;5078006;27;45231;-53
2022/02/25 07:15:40;;;;;;;;;1.00;1.00;;;;;19.50;32.43;102096.06;5077657;27;45264;-54
2022/02/25 07:18:06;;;;;;;;;0.75;0.75;;;;;19.51;32.60;102108.31;5077886;27;45348;-53
2022/02/25 07:20:31;;;;;;;;;0.00;0.00;;;;;19.49;32.81;102104.84;5078420;27;45379;-50
2022/02/25 07:22:57;;;;;;;;;2.00;1.00;;;;;19.49;32.46;102099.59;5077619;28;46097;-55
2022/02/25 07:25:23;;;;;;;;;2.00;1.00;;;;;19.46;32.73;102111.09;5077603;27;45334;-51
2022/02/25 07:27:48;;;;;;;;;0.00;0.00;;;;;19.45;32.73;102104.97;5076552;28;45790;-53
2022/02/25 07:30:15;;;;;;;;;0.00;0.00;;;;;19.46;32.82;102108.44;5077765;27;45281;-50
2022/02/25 07:32:41;;;;;;;;;1.25;0.75;;;;;19.44;32.89;102103.25;5077436;27;46339;-55
2022/02/25 07:35:09;;;;;;;;;1.00;1.00;;;;;19.43;32.66;102106.78;5077698;27;45389;-53
2022/02/25 07:37:34;;;;;;;;;0.00;0.00;;;;;19.43;32.70;102100.66;5076343;27;45350;-53
2022/02/25 07:40:00;;;;;;;;;2.00;0.50;;;;;19.39;32.48;102089.38;5078049;27;45303;-53
2022/02/25 07:42:26;;;;;;;;;0.00;0.00;;;;;19.40;32.75;102091.09;5077375;27;46579;-53
2022/02/25 07:44:51;;;;;;;;;0.00;0.00;;;;;19.40;32.46;102098.13;5077348;27;45317;-55
2022/02/25 07:47:19;;;;;;;;;0.00;0.00;;;;;19.39;32.44;102097.25;5077515;27;45282;-49
2022/02/25 07:49:48;;;;;;;;;1.00;1.00;;;;;19.37;32.75;102117.47;5077545;27;45553;-52
2022/02/25 07:52:14;;;;;;;;;0.25;0.25;;;;;19.37;32.49;102120.09;5077179;27;46085;-56
2022/02/25 07:54:39;;;;;;;;;1.25;0.00;;;;;19.37;32.56;102122.72;5076030;28;45484;-55
2022/02/25 07:57:05;;;;;;;;;0.00;0.00;;;;;19.36;32.45;102121.00;5077349;27;45281;-49
2022/02/25 07:59:30;;;;;;;;;0.00;0.00;;;;;19.36;32.47;102133.31;5077683;27;45546;-52
2022/02/25 08:01:56;;;;;;;;;0.50;0.50;;;;;19.35;32.76;102135.06;5077344;27;45447;-50
2022/02/25 08:04:21;;;;;;;;;0.00;0.00;;;;;19.32;32.95;102124.66;5077168;27;45363;-50
2022/02/25 08:06:46;;;;;;;;;0.50;0.00;;;;;19.36;32.49;102135.94;5077524;27;45476;-54
2022/02/25 08:09:12;;;;;;;;;0.00;0.00;;;;;19.34;32.41;102137.75;5077280;27;45435;-54
2022/02/25 08:11:38;;;;;;;;;0.00;0.00;;;;;19.34;32.87;102133.34;5076965;27;46223;-54
2022/02/25 08:14:04;;;;;;;;;1.00;0.50;;;;;19.35;32.94;102149.97;5077134;27;45523;-52
2022/02/25 08:16:29;;;;;;;;;0.25;0.00;;;;;19.34;32.87;102143.88;5077057;27;45255;-54
2022/02/25 08:18:55;;;;;;;;;1.00;1.00;;;;;19.33;32.88;102149.16;5077248;27;45187;-52
2022/02/25 08:21:20;;;;;;;;;2.00;1.00;;;;;19.33;32.65;102157.91;5076802;27;45431;-54
2022/02/25 08:23:45;;;;;;;;;0.00;0.00;;;;;19.33;32.65;102151.78;5075617;27;45300;-55
2022/02/25 08:26:11;;;;;;;;;2.25;0.25;;;;;19.31;32.56;102159.72;5077215;27;45716;-55
2022/02/25 08:28:37;;;;;;;;;1.50;0.00;;;;;19.31;32.74;102157.09;5077069;27;45574;-52
2022/02/25 08:31:02;;;;;;;;;1.00;1.00;;;;;19.32;32.95;102156.19;5076986;27;46952;-55
2022/02/25 08:33:28;;;;;;;;;0.00;0.00;;;;;19.31;32.91;102159.72;5076685;28;45355;-55
2022/02/25 08:35:53;;;;;;;;;0.00;0.00;;;;;19.31;32.90;102164.97;5076940;27;45413;-56
2022/02/25 08:38:18;;;;;;;;;0.50;0.50;;;;;19.31;32.69;102159.72;5076863;27;45422;-53
2022/02/25 08:40:45;;;;;;;;;2.00;2.00;;;;;19.29;32.80;102156.28;5075721;27;45584;-56
2022/02/25 08:43:10;;;;;;;;;0.75;0.75;;;;;19.31;32.72;102167.63;5076798;27;45347;-57
2022/02/25 08:45:40;;;;;;;;;0.00;0.00;;;;;19.30;32.65;102165.88;5077099;27;45342;-55
2022/02/25 08:48:05;;;;;;;;;0.75;0.25;;;;;19.28;32.72;102162.44;5077188;27;45185;-57
2022/02/25 08:50:31;;;;;;;;;2.00;2.00;;;;;19.28;32.93;102168.56;5076314;27;45355;-56
2022/02/25 08:52:56;;;;;;;;;1.75;0.00;;;;;19.30;33.39;102179.03;5076602;27;45845;-57
2022/02/25 08:55:23;;;;;;;;;2.50;1.00;;;;;19.29;32.84;102182.56;5076785;27;45927;-57
2022/02/25 08:57:48;;;;;;;;;0.25;0.25;;;;;19.29;33.23;102183.41;5076461;27;45492;-54
2022/02/25 09:00:23;;;;;;;;;0.00;0.00;;;;;19.29;33.02;102193.06;5076306;27;46098;-56
2022/02/25 09:02:51;;;;;;;;;0.00;0.00;;;;;19.28;32.85;102196.59;5076307;27;45806;-56
2022/02/25 09:05:17;;;;;;;;;0.00;0.00;;;;;19.28;32.69;102201.88;5076365;27;45391;-54
2022/02/25 09:07:43;;;;;;;;;0.75;0.75;;;;;19.29;32.92;102200.97;5076629;27;45540;-53
2022/02/25 09:10:09;;;;;;;;;0.00;0.00;;;;;19.29;32.95;102201.81;5076233;27;45394;-56
2022/02/25 09:12:36;;;;;;;;;0.50;0.50;;;;;19.27;32.96;102200.13;5076475;27;45722;-55
2022/02/25 09:15:03;;;;;;;;;0.00;0.00;;;;;19.29;32.96;102203.59;5076276;27;45378;-55
2022/02/25 09:17:29;;;;;;;;;0.75;0.75;;;;;19.30;32.88;102211.44;5076284;27;45661;-53
2022/02/25 09:19:54;;;;;;;;;1.00;1.00;;;;;19.28;32.97;102207.13;5076009;27;46016;-55
2022/02/25 09:22:19;;;;;;;;;1.00;1.00;;;;;19.28;33.07;102213.25;5076230;27;45403;-55
2022/02/25 09:24:45;;;;;;;;;1.00;0.75;;;;;19.33;32.99;102214.88;5076317;27;45419;-57
2022/02/25 09:27:10;;;;;;;;;0.00;0.00;;;;;19.33;33.27;102221.00;5076240;27;45392;-56
2022/02/25 09:29:36;;;;;;;;;2.00;1.00;;;;;19.38;33.36;102234.03;5076252;27;46176;-54
2022/02/25 09:32:03;;;;;;;;;2.00;0.00;;;;;19.41;33.48;102233.91;5076082;27;45340;-56
2022/02/25 09:34:28;;;;;;;;;0.75;0.75;;;;;19.46;33.24;102227.63;5076223;27;45524;-55
2022/02/25 09:36:53;;;;;;;;;0.75;0.75;;;;;19.54;33.43;102243.19;5076419;27;45361;-56
2022/02/25 09:39:19;;;;;;;;;1.50;0.00;;;;;19.61;33.47;102244.75;5075938;27;46157;-54
2022/02/25 09:41:45;;;;;;;;;0.75;0.00;;;;;19.67;33.38;102246.34;5075941;27;45271;-56
2022/02/25 09:44:11;;;;;;;;;0.00;0.00;;;;;19.73;33.00;102245.31;5075976;27;45294;-53
2022/02/25 09:46:36;;;;;;;;;3.75;0.00;;;;;19.79;33.41;102255.63;5076464;27;45338;-52
2022/02/25 09:49:02;;;;;;;;;1.00;0.00;;;;;19.84;33.15;102252.84;5075708;27;45497;-55
2022/02/25 09:51:28;;;;;;;;;0.00;0.00;;;;;19.91;33.14;102249.16;5075764;28;45449;-54
2022/02/25 09:53:54;;;;;;;;;0.00;0.00;;;;;19.97;33.42;102263.91;5078851;27;45487;-52
2022/02/25 09:56:23;;;;;;;;;1.75;0.75;;;;;20.00;33.32;102267.31;5078248;28;45482;-54
2022/02/25 09:58:49;;;;;;;;;1.50;0.75;;;;;20.06;32.67;102264.50;5078905;28;45365;-57
2022/02/25 10:01:14;;;;;;;;;1.00;1.00;;;;;20.11;32.89;102266.13;5079064;27;45404;-55
2022/02/25 10:03:39;;;;;;;;;0.00;0.00;;;;;20.14;32.71;102266.00;5079582;27;45207;-55
2022/02/25 10:06:09;;;;;;;;;0.25;0.25;;;;;20.17;32.74;102266.81;5079368;27;45611;-56
2022/02/25 10:08:35;;;;;;;;;1.00;1.00;;;;;20.21;32.54;102267.56;5079058;27;45488;-54
2022/02/25 10:11:02;;;;;;;;;1.75;0.50;;;;;20.21;32.92;102270.19;5078916;27;45683;-54
2022/02/25 10:13:29;;;;;;;;;1.50;0.25;;;;;20.25;33.17;102284.97;5079056;27;45498;-56
2022/02/25 10:15:58;;;;;;;;;3.25;1.00;;;;;20.26;32.69;102276.16;5078992;27;45507;-54
2022/02/25 10:18:29;;;;;;;;;2.00;1.00;;;;;20.27;32.79;102282.31;5078681;27;45242;-56
2022/02/25 10:21:04;;;;;;;;;2.25;0.25;;;;;20.28;32.76;102287.53;5079009;27;45878;-56
2022/02/25 10:23:34;;;;;;;;;0.00;0.00;;;;;20.28;32.94;102284.03;5078894;27;45290;-54
2022/02/25 10:26:16;;;;;;;;;1.00;0.50;;;;;20.30;32.43;102285.69;5077708;28;45469;-54
2022/02/25 10:28:50;;;;;;;;;0.00;0.00;;;;;20.30;32.57;102287.47;5078561;27;46065;-49
2022/02/25 10:31:23;;;;;;;;;1.50;1.00;;;;;20.30;32.36;102277.81;5078654;27;45267;-55
2022/02/25 10:34:12;;;;;;;;;0.75;0.75;;;;;20.31;33.00;102287.44;5078709;27;45446;-55
2022/02/25 10:36:44;;;;;;;;;1.00;1.00;;;;;20.31;32.87;102284.78;5079296;27;45235;-53
2022/02/25 10:39:11;;;;;;;;;1.00;0.00;;;;;20.30;32.50;102290.97;5078461;27;46267;-55
2022/02/25 10:41:36;;;;;;;;;0.00;0.00;;;;;20.29;32.78;102294.50;5078503;28;45800;-54
2022/02/25 10:44:02;;;;;;;;;1.00;1.00;;;;;20.29;32.83;102291.88;5078436;27;45705;-53
2022/02/25 10:46:27;;;;;;;;;1.00;1.00;;;;;20.29;33.04;102294.50;5077599;27;45493;-53
2022/02/25 10:49:03;;;;;;;;;0.75;0.75;;;;;20.29;32.49;102296.25;5078444;27;46427;-54
2022/02/25 10:51:36;;;;;;;;;0.00;0.00;;;;;20.29;32.32;102302.41;5078563;28;45483;-54
2022/02/25 10:54:04;;;;;;;;;2.00;0.00;;;;;20.28;32.96;102295.41;5078273;27;45392;-53
2022/02/25 10:56:42;;;;;;;;;0.75;0.00;;;;;20.26;32.91;102291.97;5078469;27;45377;-54
2022/02/25 10:59:11;;;;;;;;;1.00;0.00;;;;;20.28;32.63;102291.94;5076617;28;47462;-55
2022/02/25 11:01:38;;;;;;;;;0.50;0.50;;;;;20.28;32.52;102298.03;5077989;27;45379;-53
2022/02/25 11:04:05;;;;;;;;;1.00;1.00;;;;;20.26;32.45;102291.97;5077965;27;45500;-55
2022/02/25 11:06:32;;;;;;;;;2.00;1.00;;;;;20.25;32.62;102295.50;5078251;27;45425;-54
2022/02/25 11:08:58;;;;;;;;;3.50;2.00;;;;;20.24;32.32;102305.19;5077773;27;46215;-54
2022/02/25 11:11:24;;;;;;;;;1.50;1.00;;;;;20.22;32.07;102298.25;5077874;27;45414;-52
2022/02/25 11:13:50;;;;;;;;;1.00;0.00;;;;;20.21;32.54;102305.28;5077996;27;45444;-54
2022/02/25 11:16:17;;;;;;;;;3.00;1.25;;;;;20.21;33.03;102310.53;5077787;27;45571;-53
2022/02/25 11:18:47;;;;;;;;;2.25;1.25;;;;;20.20;32.74;102305.31;5076645;28;48414;-51
2022/02/25 11:21:14;;;;;;;;;1.50;1.00;;;;;20.18;32.59;102304.50;5078105;27;45426;-53
2022/02/25 11:23:43;;;;;;;;;0.25;0.25;;;;;20.18;32.60;102300.09;5078158;27;45379;-53
2022/02/25 11:26:09;;;;;;;;;2.50;1.00;;;;;20.17;32.57;102298.41;5077048;28;45523;-54